createdAt,value
2018-04-22T00:00:04.148Z,7.40
2018-04-22T00:02:31.590Z,13.07
2018-04-22T00:04:59.807Z,12.90
2018-04-22T00:07:27.242Z,10.03
2018-04-22T00:09:54.672Z,9.97
2018-04-22T00:12:22.884Z,9.30
2018-04-22T00:14:50.329Z,9.50
2018-04-22T00:17:17.772Z,10.53
2018-04-22T00:19:45.227Z,13.23
2018-04-22T00:22:12.657Z,9.87
2018-04-22T00:24:40.868Z,9.67
2018-04-22T00:27:08.301Z,10.27
2018-04-22T00:29:36.497Z,10.07
2018-04-22T00:32:03.941Z,10.43
2018-04-22T00:34:31.402Z,9.37
2018-04-22T00:36:58.843Z,15.33
2018-04-22T00:39:27.052Z,12.33
2018-04-22T00:41:54.501Z,9.83
2018-04-22T00:44:21.932Z,11.40
2018-04-22T00:46:50.149Z,9.97
2018-04-22T00:49:17.611Z,8.70
2018-04-22T00:51:45.144Z,8.00
2018-04-22T00:54:20.240Z,7.90
2018-04-22T00:56:47.676Z,9.20
2018-04-22T00:59:15.121Z,9.47
2018-04-22T01:01:42.569Z,7.57
2018-04-22T01:04:09.998Z,8.80
2018-04-22T01:06:37.434Z,9.07
2018-04-22T01:09:05.636Z,11.00
2018-04-22T01:11:33.074Z,9.70
2018-04-22T01:14:00.521Z,8.00
2018-04-22T01:16:28.716Z,7.80
2018-04-22T01:18:56.159Z,6.57
2018-04-22T01:21:23.600Z,7.27
2018-04-22T01:23:51.808Z,9.33
2018-04-22T01:26:19.241Z,8.67
2018-04-22T01:28:46.688Z,7.97
2018-04-22T01:31:14.885Z,8.97
2018-04-22T01:33:42.333Z,10.23
2018-04-22T01:36:09.797Z,10.53
2018-04-22T01:38:37.235Z,8.67
2018-04-22T01:41:05.441Z,8.77
2018-04-22T01:43:32.893Z,10.30
2018-04-22T01:46:00.323Z,8.63
2018-04-22T01:48:28.533Z,8.33
2018-04-22T01:50:55.968Z,9.67
2018-04-22T01:53:23.404Z,8.53
2018-04-22T01:55:51.600Z,8.77
2018-04-22T01:58:19.031Z,7.97
2018-04-22T02:00:47.229Z,9.77
2018-04-22T02:03:14.661Z,9.40
2018-04-22T02:05:42.872Z,11.63
2018-04-22T02:08:10.311Z,8.10
2018-04-22T02:10:37.745Z,8.07
2018-04-22T02:13:05.946Z,7.97
2018-04-22T02:15:33.388Z,10.73
2018-04-22T02:18:00.824Z,8.53
2018-04-22T02:20:29.031Z,7.77
2018-04-22T02:22:56.456Z,7.77
2018-04-22T02:25:24.668Z,10.53
2018-04-22T02:27:52.103Z,8.83
2018-04-22T02:30:19.541Z,7.53
2018-04-22T02:32:47.733Z,9.30
2018-04-22T02:35:15.176Z,12.27
2018-04-22T02:37:43.381Z,14.63
2018-04-22T02:40:10.816Z,13.30
2018-04-22T02:42:38.256Z,10.17
2018-04-22T02:45:06.469Z,8.70
2018-04-22T02:47:33.893Z,9.20
2018-04-22T02:50:02.106Z,10.17
2018-04-22T02:52:29.548Z,10.97
2018-04-22T02:54:56.988Z,15.73
2018-04-22T02:57:24.421Z,12.70
2018-04-22T02:59:52.640Z,13.93
2018-04-22T03:02:20.073Z,13.17
2018-04-22T03:04:47.520Z,10.80
2018-04-22T03:07:15.722Z,8.50
2018-04-22T03:09:43.164Z,9.63
2018-04-22T03:12:10.610Z,12.33
2018-04-22T03:14:38.070Z,10.83
2018-04-22T03:17:06.261Z,9.40
2018-04-22T03:19:33.696Z,9.20
2018-04-22T03:22:01.892Z,7.83
2018-04-22T03:24:29.332Z,8.00
2018-04-22T03:26:56.760Z,7.30
2018-04-22T03:29:24.951Z,8.20
2018-04-22T03:31:52.406Z,11.23
2018-04-22T03:34:20.604Z,9.00
2018-04-22T03:36:48.050Z,8.40
2018-04-22T03:39:15.471Z,7.67
2018-04-22T03:41:42.919Z,7.70
2018-04-22T03:44:10.347Z,9.40
2018-04-22T03:46:37.784Z,8.27
2018-04-22T03:49:05.211Z,9.87
2018-04-22T03:51:33.416Z,8.90
2018-04-22T03:54:00.840Z,8.20
2018-04-22T03:59:25.664Z,9.00
2018-04-22T04:01:53.141Z,10.50
2018-04-22T04:04:20.579Z,11.63
2018-04-22T04:06:48.021Z,10.07
2018-04-22T04:09:16.216Z,9.47
2018-04-22T04:11:43.660Z,9.20
2018-04-22T04:14:11.864Z,11.80
2018-04-22T04:16:39.321Z,12.57
2018-04-22T04:19:19.580Z,8.33
2018-04-22T04:21:58.961Z,10.63
2018-04-22T04:24:39.099Z,11.37
2018-04-22T04:27:18.436Z,11.20
2018-04-22T04:29:45.881Z,11.80
2018-04-22T04:32:13.321Z,9.83
2018-04-22T04:34:40.763Z,8.17
2018-04-22T04:37:08.208Z,11.53
2018-04-22T04:39:35.642Z,9.80
2018-04-22T04:42:03.849Z,9.70
2018-04-22T04:44:31.285Z,12.20
2018-04-22T04:46:58.737Z,11.93
2018-04-22T04:49:26.934Z,9.00
2018-04-22T04:51:54.387Z,9.37
2018-04-22T04:54:21.833Z,8.83
2018-04-22T04:56:50.020Z,7.93
2018-04-22T04:59:17.453Z,6.43
2018-04-22T05:01:44.898Z,7.47
2018-04-22T05:04:13.105Z,6.03
2018-04-22T05:06:41.420Z,5.90
2018-04-22T05:09:08.869Z,5.50
2018-04-22T05:11:36.309Z,7.30
2018-04-22T05:14:04.508Z,5.80
2018-04-22T05:16:31.957Z,5.67
2018-04-22T05:19:00.161Z,8.07
2018-04-22T05:21:28.365Z,8.47
2018-04-22T05:23:55.809Z,9.77
2018-04-22T05:26:24.013Z,7.93
2018-04-22T05:28:51.454Z,14.70
2018-04-22T05:31:18.892Z,12.37
2018-04-22T05:33:46.341Z,16.80
2018-04-22T05:36:14.548Z,11.07
2018-04-22T05:38:41.993Z,12.30
2018-04-22T05:41:09.432Z,14.60
2018-04-22T05:43:37.648Z,12.93
2018-04-22T05:46:05.078Z,9.93
2018-04-22T05:48:32.525Z,15.13
2018-04-22T05:50:59.972Z,12.60
2018-04-22T05:53:28.191Z,11.30
2018-04-22T05:55:55.637Z,11.70
2018-04-22T05:58:23.089Z,10.77
2018-04-22T06:00:50.539Z,16.27
2018-04-22T06:03:17.984Z,11.17
2018-04-22T06:05:46.184Z,9.57
2018-04-22T06:08:13.629Z,11.17
2018-04-22T06:10:41.071Z,12.07
2018-04-22T06:13:08.509Z,8.87
2018-04-22T06:15:36.717Z,10.37
2018-04-22T06:18:04.153Z,10.37
2018-04-22T06:20:31.584Z,9.83
2018-04-22T06:22:59.788Z,9.43
2018-04-22T06:25:27.226Z,9.03
2018-04-22T06:27:55.428Z,9.47
2018-04-22T06:30:22.865Z,7.13
2018-04-22T06:32:51.081Z,7.80
2018-04-22T06:35:18.513Z,9.67
2018-04-22T06:37:45.969Z,8.43
2018-04-22T06:40:13.402Z,8.57
2018-04-22T06:42:41.623Z,8.33
2018-04-22T06:45:09.084Z,7.73
2018-04-22T06:47:36.529Z,8.07
2018-04-22T06:50:03.975Z,7.27
2018-04-22T06:52:31.413Z,6.90
2018-04-22T06:54:58.849Z,8.40
2018-04-22T06:57:27.056Z,5.60
2018-04-22T06:59:54.489Z,6.97
2018-04-22T07:02:22.690Z,6.27
2018-04-22T07:04:50.133Z,6.03
2018-04-22T07:07:17.568Z,9.93
2018-04-22T07:09:45.775Z,8.77
2018-04-22T07:12:13.209Z,6.43
2018-04-22T07:14:40.653Z,8.03
2018-04-22T07:17:08.858Z,7.40
2018-04-22T07:19:36.292Z,7.90
2018-04-22T07:22:04.492Z,6.53
2018-04-22T07:24:31.932Z,6.80
2018-04-22T07:26:59.364Z,6.77
2018-04-22T07:29:27.577Z,5.53
2018-04-22T07:31:55.004Z,4.93
2018-04-22T07:34:23.215Z,8.10
2018-04-22T07:36:50.654Z,6.43
2018-04-22T07:39:18.088Z,5.67
2018-04-22T07:41:46.296Z,5.83
2018-04-22T07:44:13.761Z,6.30
2018-04-22T07:46:41.188Z,4.33
2018-04-22T07:49:08.818Z,3.93
2018-04-22T07:51:36.259Z,4.17
2018-04-22T07:54:03.702Z,7.30
2018-04-22T07:56:31.134Z,5.63
2018-04-22T07:58:58.624Z,5.00
2018-04-22T08:01:26.080Z,6.03
2018-04-22T08:03:54.133Z,4.97
2018-04-22T08:06:21.700Z,4.93
2018-04-22T08:08:49.152Z,7.17
2018-04-22T08:11:17.612Z,5.80
2018-04-22T08:13:45.101Z,5.17
2018-04-22T08:16:13.394Z,7.00
2018-04-22T08:18:40.790Z,6.87
2018-04-22T08:21:08.261Z,7.73
2018-04-22T08:23:35.889Z,7.03
2018-04-22T08:26:04.107Z,8.37
2018-04-22T08:28:31.538Z,7.73
2018-04-22T08:30:58.981Z,6.00
2018-04-22T08:33:27.177Z,6.63
2018-04-22T08:35:55.534Z,6.77
2018-04-22T08:38:23.736Z,6.57
2018-04-22T08:40:51.196Z,3.87
2018-04-22T08:43:18.632Z,4.27
2018-04-22T08:45:46.077Z,3.90
2018-04-22T08:48:14.289Z,2.87
2018-04-22T08:50:41.773Z,4.27
2018-04-22T08:53:09.152Z,3.90
2018-04-22T09:02:07.656Z,4.07
2018-04-22T09:04:35.067Z,4.13
2018-04-22T09:07:02.512Z,4.77
2018-04-22T09:09:29.956Z,4.90
2018-04-22T09:11:58.161Z,4.27
2018-04-22T09:14:25.608Z,4.13
2018-04-22T09:16:53.047Z,4.50
2018-04-22T09:19:21.268Z,4.20
2018-04-22T09:21:49.793Z,3.90
2018-04-22T09:24:17.992Z,4.83
2018-04-22T09:26:45.446Z,5.53
2018-04-22T09:29:12.880Z,4.10
2018-04-22T09:31:41.091Z,5.67
2018-04-22T09:34:08.526Z,3.47
2018-04-22T09:36:36.736Z,4.83
2018-04-22T09:39:04.178Z,5.07
2018-04-22T09:41:31.619Z,3.87
2018-04-22T09:43:59.059Z,3.37
2018-04-22T09:46:27.274Z,4.23
2018-04-22T09:48:54.694Z,6.23
2018-04-22T09:51:22.933Z,6.97
2018-04-22T09:53:50.420Z,7.87
2018-04-22T09:56:18.632Z,6.77
2018-04-22T09:58:46.063Z,6.87
2018-04-22T10:01:20.178Z,6.63
2018-04-22T10:03:48.584Z,5.63
2018-04-22T10:06:16.030Z,7.30
2018-04-22T10:08:43.493Z,8.63
2018-04-22T10:11:10.933Z,4.40
2018-04-22T10:13:38.366Z,3.70
2018-04-22T10:16:06.575Z,7.13
2018-04-22T10:18:34.013Z,7.37
2018-04-22T10:21:02.224Z,5.03
2018-04-22T10:23:29.669Z,5.03
2018-04-22T10:25:57.118Z,4.93
2018-04-22T10:28:24.546Z,4.57
2018-04-22T10:30:52.756Z,5.40
2018-04-22T10:33:20.185Z,4.20
2018-04-22T10:35:48.389Z,4.40
2018-04-22T10:38:15.834Z,3.50
2018-04-22T10:40:43.273Z,5.20
2018-04-22T10:43:11.474Z,3.90
2018-04-22T10:45:38.917Z,3.80
2018-04-22T10:48:07.121Z,3.83
2018-04-22T10:50:35.336Z,6.30
2018-04-22T10:53:02.772Z,4.90
2018-04-22T10:55:30.209Z,3.90
2018-04-22T10:57:57.669Z,3.30
2018-04-22T11:00:26.092Z,3.10
2018-04-22T11:02:54.310Z,4.70
2018-04-22T11:05:21.732Z,6.00
2018-04-22T11:07:49.942Z,5.57
2018-04-22T11:10:17.386Z,3.37
2018-04-22T11:12:44.838Z,3.77
2018-04-22T11:15:13.029Z,4.67
2018-04-22T11:17:40.469Z,3.77
2018-04-22T11:20:07.906Z,5.13
2018-04-22T11:22:36.192Z,4.00
2018-04-22T11:25:04.388Z,3.57
2018-04-22T11:27:31.832Z,5.23
2018-04-22T11:30:00.047Z,4.07
2018-04-22T11:32:28.256Z,3.00
2018-04-22T11:34:56.461Z,4.37
2018-04-22T11:37:23.896Z,4.23
2018-04-22T11:39:52.102Z,3.27
2018-04-22T11:42:19.541Z,4.13
2018-04-22T11:44:46.977Z,4.10
2018-04-22T11:47:14.436Z,3.50
2018-04-22T11:49:42.632Z,2.90
2018-04-22T11:52:10.092Z,3.43
2018-04-22T11:54:38.290Z,3.10
2018-04-22T11:57:05.734Z,4.37
2018-04-22T11:59:33.426Z,4.03
2018-04-22T12:02:00.873Z,3.83
2018-04-22T12:04:28.313Z,11.47
2018-04-22T14:02:37.033Z,3.50
2018-04-22T14:05:04.491Z,4.50
2018-04-22T14:07:31.925Z,5.83
2018-04-22T14:09:59.369Z,4.30
2018-04-22T14:12:26.808Z,5.57
2018-04-22T14:14:54.252Z,4.77
2018-04-22T14:17:22.451Z,4.87
2018-04-22T14:19:49.958Z,5.40
2018-04-22T14:22:17.336Z,5.23
2018-04-22T14:24:45.540Z,4.47
2018-04-22T14:27:12.968Z,6.63
2018-04-22T14:29:42.205Z,5.77
2018-04-22T14:32:09.649Z,4.37
2018-04-22T14:34:37.080Z,3.30
2018-04-22T14:37:05.284Z,5.57
2018-04-22T14:39:32.725Z,5.40
2018-04-22T14:42:00.156Z,5.97
2018-04-22T14:44:39.509Z,3.83
2018-04-22T14:47:07.711Z,4.03
2018-04-22T14:49:35.155Z,3.60
2018-04-22T14:52:02.589Z,4.03
2018-04-22T14:54:30.805Z,6.60
2018-04-22T14:56:58.228Z,2.90
2018-04-22T14:59:26.439Z,4.07
2018-04-22T15:01:53.881Z,4.27
2018-04-22T15:04:21.331Z,2.83
2018-04-22T15:06:50.707Z,3.47
2018-04-22T15:09:18.145Z,5.33
2018-04-22T15:11:45.583Z,3.07
2018-04-22T15:14:13.017Z,5.13
2018-04-22T15:16:40.638Z,5.57
2018-04-22T15:19:08.870Z,6.63
2018-04-22T15:21:37.124Z,4.20
2018-04-22T15:24:04.565Z,4.87
2018-04-22T15:26:32.004Z,5.57
2018-04-22T15:29:00.217Z,3.53
2018-04-22T15:31:27.886Z,7.13
2018-04-22T15:33:55.358Z,5.47
2018-04-22T15:36:22.957Z,4.50
2018-04-22T15:38:50.384Z,4.03
2018-04-22T15:41:17.833Z,4.37
2018-04-22T15:43:45.261Z,5.83
2018-04-22T15:46:12.698Z,3.90
2018-04-22T15:48:40.221Z,6.30
2018-04-22T15:51:07.721Z,3.47
2018-04-22T15:53:35.153Z,8.30
2018-04-22T15:56:02.594Z,3.53
2018-04-22T15:58:30.825Z,2.40
2018-04-22T16:00:58.273Z,6.13
2018-04-22T16:03:25.893Z,5.57
2018-04-22T16:05:53.330Z,3.80
2018-04-22T16:08:20.854Z,5.50
2018-04-22T16:10:48.228Z,4.60
2018-04-22T16:13:15.670Z,5.13
2018-04-22T16:15:43.104Z,6.43
2018-04-22T16:18:11.307Z,4.37
2018-04-22T16:20:38.757Z,3.60
2018-04-22T16:23:06.184Z,4.43
2018-04-22T16:25:34.434Z,4.37
2018-04-22T16:28:01.869Z,6.47
2018-04-22T16:30:30.328Z,7.13
2018-04-22T16:32:57.767Z,4.83
2018-04-22T16:35:25.307Z,4.93
2018-04-22T16:37:52.653Z,3.90
2018-04-22T16:40:20.100Z,5.03
2018-04-22T16:42:47.545Z,4.70
2018-04-22T16:45:14.991Z,5.60
2018-04-22T16:47:42.433Z,4.27
2018-04-22T16:50:09.932Z,4.17
2018-04-22T16:52:37.475Z,6.00
2018-04-22T16:55:04.917Z,5.80
2018-04-22T16:57:32.353Z,5.70
2018-04-22T16:59:59.792Z,4.37
2018-04-22T17:02:27.257Z,4.60
2018-04-22T17:04:54.692Z,7.03
2018-04-22T17:07:22.901Z,4.63
2018-04-22T17:09:50.332Z,3.43
2018-04-22T17:12:18.545Z,6.93
2018-04-22T17:14:45.983Z,5.03
2018-04-22T17:17:13.425Z,4.17
2018-04-22T17:19:40.864Z,6.53
2018-04-22T17:22:08.339Z,6.63
2018-04-22T17:24:35.799Z,5.57
2018-04-22T17:27:03.243Z,3.50
2018-04-22T17:29:31.455Z,4.70
2018-04-22T17:31:58.893Z,3.07
2018-04-22T17:34:26.337Z,2.37
2018-04-22T17:36:53.781Z,3.50
2018-04-22T17:39:21.985Z,5.37
2018-04-22T17:41:49.429Z,4.07
2018-04-22T17:44:16.874Z,4.73
2018-04-22T17:46:45.084Z,4.63
2018-04-22T17:49:12.666Z,4.70
2018-04-22T17:51:40.185Z,6.63
2018-04-22T17:54:07.626Z,5.80
2018-04-22T17:56:35.945Z,5.37
2018-04-22T17:59:04.233Z,6.37
2018-04-22T18:01:31.758Z,7.23
2018-04-22T18:03:59.464Z,4.10
2018-04-22T18:06:27.215Z,6.33
2018-04-22T18:08:54.964Z,4.13
2018-04-22T18:11:22.483Z,6.07
2018-04-22T18:13:51.023Z,5.60
2018-04-22T18:16:18.468Z,5.13
2018-04-22T18:18:45.902Z,4.40
2018-04-22T18:21:13.354Z,4.50
2018-04-22T18:23:40.783Z,6.20
2018-04-22T18:26:09.010Z,6.80
2018-04-22T18:28:36.450Z,6.53
2018-04-22T18:31:03.892Z,3.67
2018-04-22T18:33:31.337Z,4.20
2018-04-22T18:35:59.537Z,3.30
2018-04-22T18:38:27.003Z,3.47
2018-04-22T18:40:54.444Z,3.20
2018-04-22T18:43:21.915Z,4.57
2018-04-22T18:45:49.340Z,2.83
2018-04-22T18:48:17.548Z,4.67
2018-04-22T18:50:44.997Z,1.90
2018-04-22T18:53:12.461Z,2.83
2018-04-22T18:55:39.908Z,3.00
2018-04-22T18:58:07.339Z,2.00
2018-04-22T19:00:35.562Z,2.60
2018-04-22T19:03:03.002Z,2.33
2018-04-22T19:05:30.440Z,1.53
2018-04-22T19:07:57.881Z,4.47
2018-04-22T19:10:26.118Z,2.23
2018-04-22T19:12:53.564Z,2.57
2018-04-22T19:15:21.003Z,3.00
2018-04-22T19:17:48.443Z,2.90
2018-04-22T19:20:15.868Z,2.43
2018-04-22T19:22:44.095Z,2.03
2018-04-22T19:25:11.535Z,2.43
2018-04-22T19:27:38.978Z,1.57
2018-04-22T19:30:06.436Z,1.90
2018-04-22T19:32:33.881Z,1.73
2018-04-22T19:35:02.084Z,1.87
2018-04-22T19:37:30.428Z,2.03
2018-04-22T19:39:58.633Z,1.70
2018-04-22T19:42:26.079Z,2.20
2018-04-22T19:44:54.492Z,2.37
2018-04-22T19:47:21.984Z,3.30
2018-04-22T19:49:49.375Z,4.13
2018-04-22T19:52:16.817Z,3.03
2018-04-22T19:54:45.038Z,2.40
2018-04-22T19:57:13.735Z,2.13
2018-04-22T19:59:42.918Z,2.90
2018-04-22T20:02:10.375Z,4.60
2018-04-22T20:04:37.819Z,1.90
2018-04-22T20:07:05.682Z,2.07
2018-04-22T20:09:33.119Z,2.13
2018-04-22T20:12:00.560Z,2.50
2018-04-22T20:14:28.776Z,4.63
2018-04-22T20:16:56.218Z,3.63
2018-04-22T20:19:23.661Z,4.43
2018-04-22T20:21:51.113Z,3.73
2018-04-22T20:24:18.549Z,3.27
2018-04-22T20:26:46.758Z,2.77
2018-04-22T20:29:14.196Z,2.83
2018-04-22T20:31:42.396Z,2.30
2018-04-22T20:34:09.836Z,4.90
2018-04-22T20:36:37.269Z,2.23
2018-04-22T20:39:06.416Z,4.83
2018-04-22T20:41:33.856Z,2.53
2018-04-22T20:44:01.297Z,5.73
2018-04-22T20:46:28.804Z,2.80
2018-04-22T20:48:57.064Z,2.63
2018-04-22T20:51:24.488Z,3.77
2018-04-22T20:53:51.937Z,3.27
2018-04-22T20:56:19.377Z,3.93
2018-04-22T20:58:47.596Z,4.30
2018-04-22T21:01:15.030Z,3.10
2018-04-22T21:03:42.473Z,4.03
2018-04-22T21:06:10.681Z,6.57
2018-04-22T21:08:38.141Z,2.50
2018-04-22T21:11:05.588Z,4.10
2018-04-22T21:13:33.029Z,3.07
2018-04-22T21:16:00.465Z,4.20
2018-04-22T21:18:28.674Z,3.03
2018-04-22T21:20:56.112Z,4.03
2018-04-22T21:23:23.540Z,2.63
2018-04-22T21:25:50.975Z,2.40
2018-04-22T21:28:18.491Z,2.60
2018-04-22T21:30:45.858Z,1.87
2018-04-22T21:33:13.285Z,3.63
2018-04-22T21:35:41.493Z,2.03
2018-04-22T21:38:08.938Z,2.50
2018-04-22T21:40:36.377Z,2.33
2018-04-22T21:43:04.581Z,3.43
2018-04-22T21:45:32.032Z,6.00
2018-04-22T21:47:59.465Z,2.77
2018-04-22T21:50:26.916Z,3.87
2018-04-22T21:52:55.104Z,4.07
2018-04-22T21:55:22.554Z,2.87
2018-04-22T21:57:49.994Z,3.17
2018-04-22T22:00:18.205Z,2.17
2018-04-22T22:02:45.637Z,2.60
2018-04-22T22:05:13.083Z,3.40
2018-04-22T22:07:41.279Z,2.90
2018-04-22T22:10:08.725Z,3.83
2018-04-22T22:12:36.924Z,4.70
2018-04-22T22:15:04.363Z,3.00
2018-04-22T22:17:31.795Z,3.03
2018-04-22T22:20:00.006Z,4.63
2018-04-22T22:22:27.435Z,3.07
2018-04-22T22:24:55.638Z,6.20
2018-04-22T22:27:23.069Z,5.03
2018-04-22T22:29:50.509Z,6.00
2018-04-22T22:32:18.711Z,4.97
2018-04-22T22:34:46.156Z,5.07
2018-04-22T22:37:14.358Z,4.70
2018-04-22T22:39:41.813Z,6.20
2018-04-22T22:42:09.241Z,6.30
2018-04-22T22:44:37.449Z,6.73
2018-04-22T22:47:04.896Z,5.87
2018-04-22T22:49:32.348Z,5.23
2018-04-22T22:51:59.777Z,7.03
2018-04-22T22:54:27.974Z,5.70
2018-04-22T22:56:55.409Z,5.93
2018-04-22T22:59:23.614Z,7.40
2018-04-22T23:01:51.051Z,6.37
2018-04-22T23:04:18.481Z,7.87
2018-04-22T23:06:46.683Z,7.30
2018-04-22T23:09:14.120Z,10.63
2018-04-22T23:11:42.325Z,8.27
2018-04-22T23:14:09.765Z,12.83
2018-04-22T23:16:37.201Z,9.20
2018-04-22T23:19:05.415Z,10.30
2018-04-22T23:21:32.856Z,10.23
2018-04-22T23:24:00.293Z,10.07
2018-04-22T23:26:28.501Z,7.50
2018-04-22T23:28:55.931Z,4.67
2018-04-22T23:31:23.393Z,4.93
2018-04-22T23:33:50.836Z,4.43
2018-04-22T23:36:19.054Z,2.17
2018-04-22T23:38:46.493Z,3.90
2018-04-22T23:41:13.929Z,2.00
2018-04-22T23:43:41.373Z,3.23
2018-04-22T23:46:09.581Z,4.13
2018-04-22T23:48:37.011Z,2.70
2018-04-22T23:51:05.216Z,3.83
2018-04-22T23:53:32.665Z,3.50
2018-04-22T23:56:00.119Z,3.63
2018-04-22T23:58:27.552Z,2.17
